sensor_id;sensor_type;location;lat;lon;timestamp;P1;durP1;ratioP1;P2;durP2;ratioP2
3465;SDS011;1747;48.884;9.160;2022-12-18T00:02:14;37.28;;;15.40;;
3465;SDS011;1747;48.884;9.160;2022-12-18T00:04:41;42.42;;;15.45;;
3465;SDS011;1747;48.884;9.160;2022-12-18T00:07:07;49.15;;;15.80;;
3465;SDS011;1747;48.884;9.160;2022-12-18T00:09:34;40.83;;;14.98;;
3465;SDS011;1747;48.884;9.160;2022-12-18T00:12:01;37.88;;;15.95;;
3465;SDS011;1747;48.884;9.160;2022-12-18T00:14:28;51.28;;;17.00;;
3465;SDS011;1747;48.884;9.160;2022-12-18T00:16:56;41.85;;;16.08;;
3465;SDS011;1747;48.884;9.160;2022-12-18T00:19:25;42.70;;;15.43;;
3465;SDS011;1747;48.884;9.160;2022-12-18T00:21:53;50.17;;;16.20;;
3465;SDS011;1747;48.884;9.160;2022-12-18T00:24:20;41.00;;;15.50;;
3465;SDS011;1747;48.884;9.160;2022-12-18T00:26:46;36.67;;;15.18;;
3465;SDS011;1747;48.884;9.160;2022-12-18T00:29:13;46.80;;;15.43;;
3465;SDS011;1747;48.884;9.160;2022-12-18T00:31:40;43.22;;;15.10;;
3465;SDS011;1747;48.884;9.160;2022-12-18T00:34:11;37.47;;;13.18;;
3465;SDS011;1747;48.884;9.160;2022-12-18T00:36:39;36.90;;;13.25;;
3465;SDS011;1747;48.884;9.160;2022-12-18T00:39:06;31.02;;;13.30;;
3465;SDS011;1747;48.884;9.160;2022-12-18T00:41:34;30.38;;;12.93;;
3465;SDS011;1747;48.884;9.160;2022-12-18T00:44:18;42.75;;;14.23;;
3465;SDS011;1747;48.884;9.160;2022-12-18T00:46:46;35.33;;;12.98;;
3465;SDS011;1747;48.884;9.160;2022-12-18T00:49:15;41.90;;;15.48;;
3465;SDS011;1747;48.884;9.160;2022-12-18T00:51:44;36.97;;;14.02;;
3465;SDS011;1747;48.884;9.160;2022-12-18T00:54:10;42.58;;;14.88;;
3465;SDS011;1747;48.884;9.160;2022-12-18T00:56:38;36.22;;;15.23;;
3465;SDS011;1747;48.884;9.160;2022-12-18T00:59:05;43.53;;;14.57;;
3465;SDS011;1747;48.884;9.160;2022-12-18T01:01:32;37.80;;;13.88;;
3465;SDS011;1747;48.884;9.160;2022-12-18T01:03:59;37.30;;;14.82;;
3465;SDS011;1747;48.884;9.160;2022-12-18T01:06:28;42.92;;;14.95;;
3465;SDS011;1747;48.884;9.160;2022-12-18T01:08:55;37.65;;;12.93;;
3465;SDS011;1747;48.884;9.160;2022-12-18T01:11:22;44.38;;;13.77;;
3465;SDS011;1747;48.884;9.160;2022-12-18T01:13:49;44.45;;;16.02;;
3465;SDS011;1747;48.884;9.160;2022-12-18T01:16:17;38.03;;;13.15;;
3465;SDS011;1747;48.884;9.160;2022-12-18T01:18:44;38.95;;;14.25;;
3465;SDS011;1747;48.884;9.160;2022-12-18T01:21:14;31.08;;;13.05;;
3465;SDS011;1747;48.884;9.160;2022-12-18T01:23:43;41.90;;;15.88;;
3465;SDS011;1747;48.884;9.160;2022-12-18T01:26:11;43.70;;;16.05;;
3465;SDS011;1747;48.884;9.160;2022-12-18T01:28:39;43.35;;;16.30;;
3465;SDS011;1747;48.884;9.160;2022-12-18T01:31:10;41.33;;;14.23;;
3465;SDS011;1747;48.884;9.160;2022-12-18T01:33:42;45.80;;;16.10;;
3465;SDS011;1747;48.884;9.160;2022-12-18T01:36:13;55.33;;;16.33;;
3465;SDS011;1747;48.884;9.160;2022-12-18T01:38:42;43.47;;;17.08;;
3465;SDS011;1747;48.884;9.160;2022-12-18T01:41:10;73.60;;;20.27;;
3465;SDS011;1747;48.884;9.160;2022-12-18T01:43:41;62.10;;;20.80;;
3465;SDS011;1747;48.884;9.160;2022-12-18T01:46:13;65.68;;;21.05;;
3465;SDS011;1747;48.884;9.160;2022-12-18T01:48:39;60.33;;;22.40;;
3465;SDS011;1747;48.884;9.160;2022-12-18T01:51:08;56.67;;;19.75;;
3465;SDS011;1747;48.884;9.160;2022-12-18T01:53:37;56.60;;;20.38;;
3465;SDS011;1747;48.884;9.160;2022-12-18T01:56:08;65.63;;;19.10;;
3465;SDS011;1747;48.884;9.160;2022-12-18T01:58:39;49.08;;;19.63;;
3465;SDS011;1747;48.884;9.160;2022-12-18T02:01:12;50.33;;;18.70;;
3465;SDS011;1747;48.884;9.160;2022-12-18T02:03:40;51.28;;;16.40;;
3465;SDS011;1747;48.884;9.160;2022-12-18T02:06:09;49.53;;;16.65;;
3465;SDS011;1747;48.884;9.160;2022-12-18T02:08:45;45.35;;;16.73;;
3465;SDS011;1747;48.884;9.160;2022-12-18T02:11:23;44.28;;;15.57;;
3465;SDS011;1747;48.884;9.160;2022-12-18T02:14:01;42.05;;;14.73;;
3465;SDS011;1747;48.884;9.160;2022-12-18T02:16:35;43.42;;;15.75;;
3465;SDS011;1747;48.884;9.160;2022-12-18T02:19:10;45.65;;;17.23;;
3465;SDS011;1747;48.884;9.160;2022-12-18T02:21:51;39.38;;;14.52;;
3465;SDS011;1747;48.884;9.160;2022-12-18T02:24:26;43.45;;;13.77;;
3465;SDS011;1747;48.884;9.160;2022-12-18T02:26:59;52.60;;;15.77;;
3465;SDS011;1747;48.884;9.160;2022-12-18T02:29:29;37.53;;;14.57;;
3465;SDS011;1747;48.884;9.160;2022-12-18T02:32:01;34.25;;;13.65;;
3465;SDS011;1747;48.884;9.160;2022-12-18T02:34:31;36.63;;;13.55;;
3465;SDS011;1747;48.884;9.160;2022-12-18T02:37:02;42.13;;;15.85;;
3465;SDS011;1747;48.884;9.160;2022-12-18T02:39:32;40.55;;;14.90;;
3465;SDS011;1747;48.884;9.160;2022-12-18T02:42:01;37.58;;;14.48;;
3465;SDS011;1747;48.884;9.160;2022-12-18T02:44:33;38.20;;;15.00;;
3465;SDS011;1747;48.884;9.160;2022-12-18T02:47:00;43.17;;;14.32;;
3465;SDS011;1747;48.884;9.160;2022-12-18T02:49:30;41.22;;;16.05;;
3465;SDS011;1747;48.884;9.160;2022-12-18T02:52:05;32.95;;;13.18;;
3465;SDS011;1747;48.884;9.160;2022-12-18T02:54:38;42.75;;;14.43;;
3465;SDS011;1747;48.884;9.160;2022-12-18T02:57:16;47.92;;;14.82;;
3465;SDS011;1747;48.884;9.160;2022-12-18T02:59:50;35.30;;;14.25;;
3465;SDS011;1747;48.884;9.160;2022-12-18T03:02:26;43.97;;;14.75;;
3465;SDS011;1747;48.884;9.160;2022-12-18T03:04:58;40.55;;;13.45;;
3465;SDS011;1747;48.884;9.160;2022-12-18T03:07:34;38.97;;;14.23;;
3465;SDS011;1747;48.884;9.160;2022-12-18T03:10:04;44.60;;;13.35;;
3465;SDS011;1747;48.884;9.160;2022-12-18T03:12:37;37.75;;;14.10;;
3465;SDS011;1747;48.884;9.160;2022-12-18T03:15:07;35.45;;;14.05;;
3465;SDS011;1747;48.884;9.160;2022-12-18T03:17:37;28.38;;;14.23;;
3465;SDS011;1747;48.884;9.160;2022-12-18T03:20:09;36.28;;;13.52;;
3465;SDS011;1747;48.884;9.160;2022-12-18T03:22:40;38.88;;;13.32;;
3465;SDS011;1747;48.884;9.160;2022-12-18T03:25:12;34.65;;;12.60;;
3465;SDS011;1747;48.884;9.160;2022-12-18T03:27:42;50.42;;;15.02;;
3465;SDS011;1747;48.884;9.160;2022-12-18T03:30:12;35.72;;;13.52;;
3465;SDS011;1747;48.884;9.160;2022-12-18T03:32:42;36.80;;;14.27;;
3465;SDS011;1747;48.884;9.160;2022-12-18T03:35:13;41.50;;;14.20;;
3465;SDS011;1747;48.884;9.160;2022-12-18T03:37:45;38.47;;;12.73;;
3465;SDS011;1747;48.884;9.160;2022-12-18T03:40:11;42.15;;;14.52;;
3465;SDS011;1747;48.884;9.160;2022-12-18T03:42:40;37.47;;;14.35;;
3465;SDS011;1747;48.884;9.160;2022-12-18T03:45:18;37.78;;;14.65;;
3465;SDS011;1747;48.884;9.160;2022-12-18T03:47:51;37.78;;;14.25;;
3465;SDS011;1747;48.884;9.160;2022-12-18T03:50:27;35.60;;;11.98;;
3465;SDS011;1747;48.884;9.160;2022-12-18T03:52:58;37.22;;;12.88;;
3465;SDS011;1747;48.884;9.160;2022-12-18T03:55:30;43.58;;;14.32;;
3465;SDS011;1747;48.884;9.160;2022-12-18T03:58:01;34.90;;;13.63;;
3465;SDS011;1747;48.884;9.160;2022-12-18T04:00:32;31.95;;;13.15;;
3465;SDS011;1747;48.884;9.160;2022-12-18T04:03:00;41.25;;;11.77;;
3465;SDS011;1747;48.884;9.160;2022-12-18T04:05:30;41.45;;;14.40;;
3465;SDS011;1747;48.884;9.160;2022-12-18T04:07:59;34.90;;;12.20;;
3465;SDS011;1747;48.884;9.160;2022-12-18T04:10:27;34.15;;;12.55;;
3465;SDS011;1747;48.884;9.160;2022-12-18T04:12:55;39.25;;;13.48;;
3465;SDS011;1747;48.884;9.160;2022-12-18T04:15:23;41.55;;;13.55;;
3465;SDS011;1747;48.884;9.160;2022-12-18T04:17:50;32.70;;;12.73;;
3465;SDS011;1747;48.884;9.160;2022-12-18T04:20:17;34.50;;;12.15;;
3465;SDS011;1747;48.884;9.160;2022-12-18T04:22:44;29.92;;;13.43;;
3465;SDS011;1747;48.884;9.160;2022-12-18T04:25:11;34.60;;;13.23;;
3465;SDS011;1747;48.884;9.160;2022-12-18T04:27:39;35.95;;;13.70;;
3465;SDS011;1747;48.884;9.160;2022-12-18T04:30:06;34.17;;;12.85;;
3465;SDS011;1747;48.884;9.160;2022-12-18T04:32:35;32.53;;;11.93;;
3465;SDS011;1747;48.884;9.160;2022-12-18T04:35:02;34.55;;;12.77;;
3465;SDS011;1747;48.884;9.160;2022-12-18T04:37:31;35.53;;;11.98;;
3465;SDS011;1747;48.884;9.160;2022-12-18T04:39:58;33.38;;;12.30;;
3465;SDS011;1747;48.884;9.160;2022-12-18T04:42:25;35.40;;;12.57;;
3465;SDS011;1747;48.884;9.160;2022-12-18T04:44:52;32.95;;;12.45;;
3465;SDS011;1747;48.884;9.160;2022-12-18T04:47:18;36.63;;;12.90;;
3465;SDS011;1747;48.884;9.160;2022-12-18T04:49:47;38.47;;;12.93;;
3465;SDS011;1747;48.884;9.160;2022-12-18T04:52:13;33.03;;;13.27;;
3465;SDS011;1747;48.884;9.160;2022-12-18T04:54:40;31.10;;;12.70;;
3465;SDS011;1747;48.884;9.160;2022-12-18T04:57:07;36.33;;;13.95;;
3465;SDS011;1747;48.884;9.160;2022-12-18T04:59:34;30.50;;;11.50;;
3465;SDS011;1747;48.884;9.160;2022-12-18T05:02:00;33.47;;;13.20;;
3465;SDS011;1747;48.884;9.160;2022-12-18T05:04:27;33.20;;;12.32;;
3465;SDS011;1747;48.884;9.160;2022-12-18T05:06:55;36.15;;;13.65;;
3465;SDS011;1747;48.884;9.160;2022-12-18T05:09:22;31.48;;;12.95;;
3465;SDS011;1747;48.884;9.160;2022-12-18T05:11:49;40.28;;;14.38;;
3465;SDS011;1747;48.884;9.160;2022-12-18T05:14:16;36.83;;;13.82;;
3465;SDS011;1747;48.884;9.160;2022-12-18T05:16:43;37.20;;;13.68;;
3465;SDS011;1747;48.884;9.160;2022-12-18T05:19:09;44.22;;;14.88;;
3465;SDS011;1747;48.884;9.160;2022-12-18T05:21:36;41.97;;;14.48;;
3465;SDS011;1747;48.884;9.160;2022-12-18T05:24:05;37.80;;;14.65;;
3465;SDS011;1747;48.884;9.160;2022-12-18T05:26:32;45.35;;;15.82;;
3465;SDS011;1747;48.884;9.160;2022-12-18T05:28:59;39.58;;;14.63;;
3465;SDS011;1747;48.884;9.160;2022-12-18T05:31:26;34.45;;;13.90;;
3465;SDS011;1747;48.884;9.160;2022-12-18T05:33:53;35.17;;;13.50;;
3465;SDS011;1747;48.884;9.160;2022-12-18T05:36:20;40.05;;;14.45;;
3465;SDS011;1747;48.884;9.160;2022-12-18T05:38:46;40.53;;;13.85;;
3465;SDS011;1747;48.884;9.160;2022-12-18T05:41:15;35.75;;;13.85;;
3465;SDS011;1747;48.884;9.160;2022-12-18T05:43:41;31.90;;;12.88;;
3465;SDS011;1747;48.884;9.160;2022-12-18T05:46:09;42.33;;;15.27;;
3465;SDS011;1747;48.884;9.160;2022-12-18T05:48:39;45.72;;;14.38;;
3465;SDS011;1747;48.884;9.160;2022-12-18T05:51:06;40.35;;;14.85;;
3465;SDS011;1747;48.884;9.160;2022-12-18T05:53:35;40.53;;;14.65;;
3465;SDS011;1747;48.884;9.160;2022-12-18T05:56:03;42.42;;;14.32;;
3465;SDS011;1747;48.884;9.160;2022-12-18T05:58:32;35.70;;;13.95;;
3465;SDS011;1747;48.884;9.160;2022-12-18T06:01:05;36.22;;;13.20;;
3465;SDS011;1747;48.884;9.160;2022-12-18T06:03:33;37.13;;;14.18;;
3465;SDS011;1747;48.884;9.160;2022-12-18T06:06:00;40.78;;;13.48;;
3465;SDS011;1747;48.884;9.160;2022-12-18T06:08:27;42.03;;;13.45;;
3465;SDS011;1747;48.884;9.160;2022-12-18T06:10:53;34.88;;;13.88;;
3465;SDS011;1747;48.884;9.160;2022-12-18T06:13:20;34.28;;;12.40;;
3465;SDS011;1747;48.884;9.160;2022-12-18T06:15:49;31.85;;;13.02;;
3465;SDS011;1747;48.884;9.160;2022-12-18T06:18:15;30.48;;;12.70;;
3465;SDS011;1747;48.884;9.160;2022-12-18T06:20:42;35.78;;;12.68;;
3465;SDS011;1747;48.884;9.160;2022-12-18T06:23:09;36.58;;;13.32;;
3465;SDS011;1747;48.884;9.160;2022-12-18T06:25:37;38.13;;;14.55;;
3465;SDS011;1747;48.884;9.160;2022-12-18T06:28:04;34.40;;;12.50;;
3465;SDS011;1747;48.884;9.160;2022-12-18T06:30:31;35.97;;;12.82;;
3465;SDS011;1747;48.884;9.160;2022-12-18T06:32:59;36.15;;;13.50;;
3465;SDS011;1747;48.884;9.160;2022-12-18T06:35:26;36.88;;;13.73;;
3465;SDS011;1747;48.884;9.160;2022-12-18T06:37:53;42.08;;;14.07;;
3465;SDS011;1747;48.884;9.160;2022-12-18T06:40:21;38.38;;;14.40;;
3465;SDS011;1747;48.884;9.160;2022-12-18T06:42:48;37.78;;;13.40;;
3465;SDS011;1747;48.884;9.160;2022-12-18T06:45:15;41.45;;;14.20;;
3465;SDS011;1747;48.884;9.160;2022-12-18T06:47:42;39.72;;;14.80;;
3465;SDS011;1747;48.884;9.160;2022-12-18T06:50:11;34.17;;;13.30;;
3465;SDS011;1747;48.884;9.160;2022-12-18T06:52:38;36.38;;;12.65;;
3465;SDS011;1747;48.884;9.160;2022-12-18T06:55:06;37.65;;;13.93;;
3465;SDS011;1747;48.884;9.160;2022-12-18T06:57:34;37.03;;;13.70;;
3465;SDS011;1747;48.884;9.160;2022-12-18T07:00:01;31.13;;;12.00;;
3465;SDS011;1747;48.884;9.160;2022-12-18T07:02:28;33.95;;;12.95;;
3465;SDS011;1747;48.884;9.160;2022-12-18T07:04:55;33.00;;;12.15;;
3465;SDS011;1747;48.884;9.160;2022-12-18T07:07:23;36.47;;;13.40;;
3465;SDS011;1747;48.884;9.160;2022-12-18T07:09:50;42.38;;;13.50;;
3465;SDS011;1747;48.884;9.160;2022-12-18T07:12:17;36.20;;;13.25;;
3465;SDS011;1747;48.884;9.160;2022-12-18T07:14:45;29.98;;;11.63;;
3465;SDS011;1747;48.884;9.160;2022-12-18T07:17:12;30.70;;;12.45;;
3465;SDS011;1747;48.884;9.160;2022-12-18T07:19:39;37.28;;;12.57;;
3465;SDS011;1747;48.884;9.160;2022-12-18T07:22:06;32.92;;;12.18;;
3465;SDS011;1747;48.884;9.160;2022-12-18T07:24:34;33.20;;;11.93;;
3465;SDS011;1747;48.884;9.160;2022-12-18T07:27:01;29.65;;;12.45;;
3465;SDS011;1747;48.884;9.160;2022-12-18T07:29:28;38.67;;;14.07;;
3465;SDS011;1747;48.884;9.160;2022-12-18T07:31:55;36.08;;;13.13;;
3465;SDS011;1747;48.884;9.160;2022-12-18T07:34:22;30.67;;;12.27;;
3465;SDS011;1747;48.884;9.160;2022-12-18T07:36:50;34.67;;;12.23;;
3465;SDS011;1747;48.884;9.160;2022-12-18T07:39:17;32.13;;;13.00;;
3465;SDS011;1747;48.884;9.160;2022-12-18T07:41:45;32.17;;;12.18;;
3465;SDS011;1747;48.884;9.160;2022-12-18T07:44:32;27.73;;;12.00;;
3465;SDS011;1747;48.884;9.160;2022-12-18T07:47:00;33.08;;;11.88;;
3465;SDS011;1747;48.884;9.160;2022-12-18T07:49:27;31.73;;;12.13;;
3465;SDS011;1747;48.884;9.160;2022-12-18T07:51:54;31.30;;;12.05;;
3465;SDS011;1747;48.884;9.160;2022-12-18T07:54:22;26.85;;;12.02;;
3465;SDS011;1747;48.884;9.160;2022-12-18T07:56:51;33.38;;;13.15;;
3465;SDS011;1747;48.884;9.160;2022-12-18T07:59:18;27.75;;;11.10;;
3465;SDS011;1747;48.884;9.160;2022-12-18T08:01:45;39.60;;;13.43;;
3465;SDS011;1747;48.884;9.160;2022-12-18T08:04:12;30.88;;;11.50;;
3465;SDS011;1747;48.884;9.160;2022-12-18T08:06:39;30.73;;;11.40;;
3465;SDS011;1747;48.884;9.160;2022-12-18T08:09:06;36.00;;;12.35;;
3465;SDS011;1747;48.884;9.160;2022-12-18T08:11:33;35.30;;;13.23;;
3465;SDS011;1747;48.884;9.160;2022-12-18T08:14:02;29.02;;;12.38;;
3465;SDS011;1747;48.884;9.160;2022-12-18T08:16:28;32.90;;;13.40;;
3465;SDS011;1747;48.884;9.160;2022-12-18T08:18:55;30.52;;;12.48;;
3465;SDS011;1747;48.884;9.160;2022-12-18T08:21:23;33.78;;;12.80;;
3465;SDS011;1747;48.884;9.160;2022-12-18T08:23:51;27.63;;;12.13;;
3465;SDS011;1747;48.884;9.160;2022-12-18T08:26:19;36.88;;;14.13;;
3465;SDS011;1747;48.884;9.160;2022-12-18T08:28:47;33.47;;;13.75;;
3465;SDS011;1747;48.884;9.160;2022-12-18T08:31:15;35.83;;;13.15;;
3465;SDS011;1747;48.884;9.160;2022-12-18T08:33:42;30.95;;;12.90;;
3465;SDS011;1747;48.884;9.160;2022-12-18T08:36:09;34.20;;;12.70;;
3465;SDS011;1747;48.884;9.160;2022-12-18T08:38:36;33.50;;;13.98;;
3465;SDS011;1747;48.884;9.160;2022-12-18T08:41:04;38.65;;;14.05;;
3465;SDS011;1747;48.884;9.160;2022-12-18T08:43:32;36.25;;;13.27;;
3465;SDS011;1747;48.884;9.160;2022-12-18T08:46:18;31.65;;;13.82;;
3465;SDS011;1747;48.884;9.160;2022-12-18T08:48:46;39.05;;;13.82;;
3465;SDS011;1747;48.884;9.160;2022-12-18T08:51:15;45.00;;;19.08;;
3465;SDS011;1747;48.884;9.160;2022-12-18T08:53:43;39.50;;;15.45;;
3465;SDS011;1747;48.884;9.160;2022-12-18T08:56:10;37.28;;;13.90;;
3465;SDS011;1747;48.884;9.160;2022-12-18T08:58:38;32.33;;;13.18;;
3465;SDS011;1747;48.884;9.160;2022-12-18T09:01:06;40.13;;;13.90;;
3465;SDS011;1747;48.884;9.160;2022-12-18T09:03:36;38.28;;;14.32;;
3465;SDS011;1747;48.884;9.160;2022-12-18T09:06:03;37.35;;;14.25;;
3465;SDS011;1747;48.884;9.160;2022-12-18T09:08:34;41.10;;;14.68;;
3465;SDS011;1747;48.884;9.160;2022-12-18T09:11:01;37.85;;;15.45;;
3465;SDS011;1747;48.884;9.160;2022-12-18T09:13:28;37.35;;;15.57;;
3465;SDS011;1747;48.884;9.160;2022-12-18T09:15:55;41.15;;;15.05;;
3465;SDS011;1747;48.884;9.160;2022-12-18T09:18:23;41.95;;;19.08;;
3465;SDS011;1747;48.884;9.160;2022-12-18T09:20:51;35.70;;;15.18;;
3465;SDS011;1747;48.884;9.160;2022-12-18T09:23:18;41.67;;;16.30;;
3465;SDS011;1747;48.884;9.160;2022-12-18T09:25:46;38.47;;;15.27;;
3465;SDS011;1747;48.884;9.160;2022-12-18T09:28:13;40.20;;;15.40;;
3465;SDS011;1747;48.884;9.160;2022-12-18T09:30:41;41.90;;;16.75;;
3465;SDS011;1747;48.884;9.160;2022-12-18T09:33:10;40.17;;;15.65;;
3465;SDS011;1747;48.884;9.160;2022-12-18T09:35:37;39.13;;;14.45;;
3465;SDS011;1747;48.884;9.160;2022-12-18T09:38:06;39.13;;;15.18;;
3465;SDS011;1747;48.884;9.160;2022-12-18T09:40:34;38.40;;;15.48;;
3465;SDS011;1747;48.884;9.160;2022-12-18T09:43:03;38.05;;;15.90;;
3465;SDS011;1747;48.884;9.160;2022-12-18T09:45:31;33.58;;;15.70;;
3465;SDS011;1747;48.884;9.160;2022-12-18T09:48:05;41.80;;;15.65;;
3465;SDS011;1747;48.884;9.160;2022-12-18T09:50:37;43.00;;;15.82;;
3465;SDS011;1747;48.884;9.160;2022-12-18T09:53:09;35.53;;;14.98;;
3465;SDS011;1747;48.884;9.160;2022-12-18T09:55:42;42.78;;;16.35;;
3465;SDS011;1747;48.884;9.160;2022-12-18T09:58:14;39.05;;;15.65;;
3465;SDS011;1747;48.884;9.160;2022-12-18T10:00:46;39.60;;;16.88;;
3465;SDS011;1747;48.884;9.160;2022-12-18T10:03:14;42.92;;;17.17;;
3465;SDS011;1747;48.884;9.160;2022-12-18T10:05:43;35.80;;;15.50;;
3465;SDS011;1747;48.884;9.160;2022-12-18T10:08:21;49.55;;;22.42;;
3465;SDS011;1747;48.884;9.160;2022-12-18T10:10:53;45.10;;;16.90;;
3465;SDS011;1747;48.884;9.160;2022-12-18T10:13:24;39.63;;;16.95;;
3465;SDS011;1747;48.884;9.160;2022-12-18T10:16:00;37.65;;;16.67;;
3465;SDS011;1747;48.884;9.160;2022-12-18T10:18:39;40.72;;;16.00;;
3465;SDS011;1747;48.884;9.160;2022-12-18T10:21:23;38.67;;;15.48;;
3465;SDS011;1747;48.884;9.160;2022-12-18T10:23:58;48.53;;;16.48;;
3465;SDS011;1747;48.884;9.160;2022-12-18T10:26:38;46.67;;;18.23;;
3465;SDS011;1747;48.884;9.160;2022-12-18T10:29:08;44.28;;;16.42;;
3465;SDS011;1747;48.884;9.160;2022-12-18T10:31:38;42.40;;;15.98;;
3465;SDS011;1747;48.884;9.160;2022-12-18T10:34:07;38.55;;;15.40;;
3465;SDS011;1747;48.884;9.160;2022-12-18T10:36:35;40.17;;;15.77;;
3465;SDS011;1747;48.884;9.160;2022-12-18T10:39:15;39.83;;;16.08;;
3465;SDS011;1747;48.884;9.160;2022-12-18T10:41:43;37.78;;;15.55;;
3465;SDS011;1747;48.884;9.160;2022-12-18T10:44:11;37.70;;;14.98;;
3465;SDS011;1747;48.884;9.160;2022-12-18T10:46:41;39.42;;;14.85;;
3465;SDS011;1747;48.884;9.160;2022-12-18T10:49:18;38.60;;;15.45;;
3465;SDS011;1747;48.884;9.160;2022-12-18T10:51:47;42.42;;;16.55;;
3465;SDS011;1747;48.884;9.160;2022-12-18T10:54:16;38.13;;;14.93;;
3465;SDS011;1747;48.884;9.160;2022-12-18T10:56:48;37.55;;;15.20;;
3465;SDS011;1747;48.884;9.160;2022-12-18T10:59:16;39.97;;;16.40;;
3465;SDS011;1747;48.884;9.160;2022-12-18T11:01:48;38.33;;;15.15;;
3465;SDS011;1747;48.884;9.160;2022-12-18T11:04:19;38.50;;;14.63;;
3465;SDS011;1747;48.884;9.160;2022-12-18T11:06:54;35.28;;;14.90;;
3465;SDS011;1747;48.884;9.160;2022-12-18T11:09:25;36.63;;;14.75;;
3465;SDS011;1747;48.884;9.160;2022-12-18T11:11:54;35.90;;;15.20;;
3465;SDS011;1747;48.884;9.160;2022-12-18T11:14:25;36.25;;;14.05;;
3465;SDS011;1747;48.884;9.160;2022-12-18T11:16:54;39.38;;;14.93;;
3465;SDS011;1747;48.884;9.160;2022-12-18T11:19:30;31.80;;;14.68;;
3465;SDS011;1747;48.884;9.160;2022-12-18T11:22:00;34.65;;;14.05;;
3465;SDS011;1747;48.884;9.160;2022-12-18T11:24:30;38.47;;;14.93;;
3465;SDS011;1747;48.884;9.160;2022-12-18T11:27:02;33.03;;;13.30;;
3465;SDS011;1747;48.884;9.160;2022-12-18T11:29:32;34.80;;;13.90;;
3465;SDS011;1747;48.884;9.160;2022-12-18T11:32:13;40.15;;;15.93;;
3465;SDS011;1747;48.884;9.160;2022-12-18T11:34:57;35.90;;;14.57;;
3465;SDS011;1747;48.884;9.160;2022-12-18T11:37:29;39.47;;;15.15;;
3465;SDS011;1747;48.884;9.160;2022-12-18T11:40:00;36.45;;;14.25;;
3465;SDS011;1747;48.884;9.160;2022-12-18T11:42:34;36.03;;;14.55;;
3465;SDS011;1747;48.884;9.160;2022-12-18T11:45:21;36.38;;;15.63;;
3465;SDS011;1747;48.884;9.160;2022-12-18T11:47:54;32.47;;;14.02;;
3465;SDS011;1747;48.884;9.160;2022-12-18T11:50:26;37.20;;;16.25;;
3465;SDS011;1747;48.884;9.160;2022-12-18T11:52:57;40.35;;;16.52;;
3465;SDS011;1747;48.884;9.160;2022-12-18T11:55:31;42.80;;;16.08;;
3465;SDS011;1747;48.884;9.160;2022-12-18T11:58:10;41.20;;;16.42;;
3465;SDS011;1747;48.884;9.160;2022-12-18T12:00:45;43.13;;;16.25;;
3465;SDS011;1747;48.884;9.160;2022-12-18T12:03:24;37.83;;;16.88;;
3465;SDS011;1747;48.884;9.160;2022-12-18T12:06:08;37.45;;;16.02;;
3465;SDS011;1747;48.884;9.160;2022-12-18T12:08:45;41.40;;;15.85;;
3465;SDS011;1747;48.884;9.160;2022-12-18T12:11:23;41.47;;;16.33;;
3465;SDS011;1747;48.884;9.160;2022-12-18T12:14:09;45.97;;;16.83;;
3465;SDS011;1747;48.884;9.160;2022-12-18T12:16:47;40.27;;;17.67;;
3465;SDS011;1747;48.884;9.160;2022-12-18T12:19:21;37.95;;;15.55;;
3465;SDS011;1747;48.884;9.160;2022-12-18T12:22:00;40.55;;;16.92;;
3465;SDS011;1747;48.884;9.160;2022-12-18T12:24:37;40.15;;;16.90;;
3465;SDS011;1747;48.884;9.160;2022-12-18T12:27:16;39.15;;;16.42;;
3465;SDS011;1747;48.884;9.160;2022-12-18T12:29:52;42.17;;;16.58;;
3465;SDS011;1747;48.884;9.160;2022-12-18T12:32:30;37.80;;;16.83;;
3465;SDS011;1747;48.884;9.160;2022-12-18T12:35:12;39.00;;;17.23;;
3465;SDS011;1747;48.884;9.160;2022-12-18T12:38:01;42.45;;;17.27;;
3465;SDS011;1747;48.884;9.160;2022-12-18T12:40:35;39.15;;;16.00;;
3465;SDS011;1747;48.884;9.160;2022-12-18T12:43:25;39.78;;;15.82;;
3465;SDS011;1747;48.884;9.160;2022-12-18T12:46:02;40.85;;;16.38;;
3465;SDS011;1747;48.884;9.160;2022-12-18T12:48:39;36.33;;;16.30;;
3465;SDS011;1747;48.884;9.160;2022-12-18T12:51:11;40.78;;;16.30;;
3465;SDS011;1747;48.884;9.160;2022-12-18T12:53:42;38.15;;;16.92;;
3465;SDS011;1747;48.884;9.160;2022-12-18T12:56:10;34.65;;;15.98;;
3465;SDS011;1747;48.884;9.160;2022-12-18T12:58:43;35.95;;;16.75;;
3465;SDS011;1747;48.884;9.160;2022-12-18T13:01:20;36.25;;;16.27;;
3465;SDS011;1747;48.884;9.160;2022-12-18T13:03:56;34.92;;;15.27;;
3465;SDS011;1747;48.884;9.160;2022-12-18T13:06:33;36.65;;;16.10;;
3465;SDS011;1747;48.884;9.160;2022-12-18T13:09:08;37.47;;;15.70;;
3465;SDS011;1747;48.884;9.160;2022-12-18T13:11:36;41.38;;;16.27;;
3465;SDS011;1747;48.884;9.160;2022-12-18T13:14:24;39.00;;;15.05;;
3465;SDS011;1747;48.884;9.160;2022-12-18T13:20:02;37.38;;;15.93;;
3465;SDS011;1747;48.884;9.160;2022-12-18T13:22:34;37.03;;;16.10;;
3465;SDS011;1747;48.884;9.160;2022-12-18T13:25:03;32.97;;;14.85;;
3465;SDS011;1747;48.884;9.160;2022-12-18T13:30:45;41.38;;;16.90;;
3465;SDS011;1747;48.884;9.160;2022-12-18T13:33:38;35.30;;;16.38;;
3465;SDS011;1747;48.884;9.160;2022-12-18T13:36:12;35.65;;;16.45;;
3465;SDS011;1747;48.884;9.160;2022-12-18T13:38:42;33.67;;;15.48;;
3465;SDS011;1747;48.884;9.160;2022-12-18T13:41:22;37.17;;;16.55;;
3465;SDS011;1747;48.884;9.160;2022-12-18T13:43:52;40.78;;;16.65;;
3465;SDS011;1747;48.884;9.160;2022-12-18T13:46:25;35.97;;;16.00;;
3465;SDS011;1747;48.884;9.160;2022-12-18T13:48:55;33.15;;;15.27;;
3465;SDS011;1747;48.884;9.160;2022-12-18T13:51:24;32.95;;;15.30;;
3465;SDS011;1747;48.884;9.160;2022-12-18T13:53:53;36.50;;;15.88;;
3465;SDS011;1747;48.884;9.160;2022-12-18T13:56:24;35.80;;;15.88;;
3465;SDS011;1747;48.884;9.160;2022-12-18T13:59:05;52.97;;;20.85;;
3465;SDS011;1747;48.884;9.160;2022-12-18T14:01:42;41.17;;;16.35;;
3465;SDS011;1747;48.884;9.160;2022-12-18T14:04:10;40.08;;;17.98;;
3465;SDS011;1747;48.884;9.160;2022-12-18T14:06:42;42.63;;;17.00;;
3465;SDS011;1747;48.884;9.160;2022-12-18T14:09:12;42.83;;;17.48;;
3465;SDS011;1747;48.884;9.160;2022-12-18T14:11:45;39.28;;;17.95;;
3465;SDS011;1747;48.884;9.160;2022-12-18T14:14:13;37.90;;;16.30;;
3465;SDS011;1747;48.884;9.160;2022-12-18T14:16:41;35.90;;;16.55;;
3465;SDS011;1747;48.884;9.160;2022-12-18T14:19:10;36.25;;;16.40;;
3465;SDS011;1747;48.884;9.160;2022-12-18T14:21:40;36.65;;;15.10;;
3465;SDS011;1747;48.884;9.160;2022-12-18T14:24:12;36.55;;;15.40;;
3465;SDS011;1747;48.884;9.160;2022-12-18T14:26:42;34.75;;;14.30;;
3465;SDS011;1747;48.884;9.160;2022-12-18T14:29:23;33.50;;;14.73;;
3465;SDS011;1747;48.884;9.160;2022-12-18T14:32:05;36.08;;;14.88;;
3465;SDS011;1747;48.884;9.160;2022-12-18T14:34:42;34.97;;;14.57;;
3465;SDS011;1747;48.884;9.160;2022-12-18T14:37:09;35.60;;;14.80;;
3465;SDS011;1747;48.884;9.160;2022-12-18T14:39:36;36.42;;;14.98;;
3465;SDS011;1747;48.884;9.160;2022-12-18T14:42:03;38.47;;;15.48;;
3465;SDS011;1747;48.884;9.160;2022-12-18T14:44:30;42.67;;;15.55;;
3465;SDS011;1747;48.884;9.160;2022-12-18T14:46:57;39.38;;;16.10;;
3465;SDS011;1747;48.884;9.160;2022-12-18T14:49:26;41.80;;;16.13;;
3465;SDS011;1747;48.884;9.160;2022-12-18T14:51:56;41.63;;;15.82;;
3465;SDS011;1747;48.884;9.160;2022-12-18T14:54:26;36.97;;;13.48;;
3465;SDS011;1747;48.884;9.160;2022-12-18T14:56:56;38.63;;;15.48;;
3465;SDS011;1747;48.884;9.160;2022-12-18T14:59:26;32.28;;;14.68;;
3465;SDS011;1747;48.884;9.160;2022-12-18T15:01:56;38.38;;;16.35;;
3465;SDS011;1747;48.884;9.160;2022-12-18T15:04:28;40.35;;;15.85;;
3465;SDS011;1747;48.884;9.160;2022-12-18T15:07:03;43.40;;;16.00;;
3465;SDS011;1747;48.884;9.160;2022-12-18T15:09:33;41.70;;;15.73;;
3465;SDS011;1747;48.884;9.160;2022-12-18T15:12:00;35.97;;;14.98;;
3465;SDS011;1747;48.884;9.160;2022-12-18T15:14:37;38.53;;;15.85;;